Providence, Rhode Island
Traffic Map
Current Weather Conditions
Providence, Rhode Island
Clear
Clear
44°
Feels Like: 41°
Wind Chill: 41° Ceiling: Unl
Heat Index: 44° Visibility: 10mi
Dew Point: 39° Wind: 6mph
Humidity: 82% Direction: 250° (WSW)
Pressure: 29.95in Gusts: 0mph
Raw Report DataKPVD 301151Z 25005KT 10SM CLR 07/04 A2995 RMK AO2 SLP141 70001 T00670039 10100 20061 51013
Traffic Incident Summary
Active as of:
Severity:
Category:
InformationThere was an issue retrieving the traffic information for this location. Please try a different location or try again shortly.
Advertisements
Track Severe Weather on mobile